sensor_id;sensor_type;location;lat;lon;timestamp;P1;durP1;ratioP1;P2;durP2;ratioP2
18435;SDS011;9346;52.006;4.720;2023-08-24T00:02:00;3.93;;;2.33;;
18435;SDS011;9346;52.006;4.720;2023-08-24T00:04:27;3.67;;;2.20;;
18435;SDS011;9346;52.006;4.720;2023-08-24T00:06:54;5.03;;;2.87;;
18435;SDS011;9346;52.006;4.720;2023-08-24T00:09:21;2.97;;;2.20;;
18435;SDS011;9346;52.006;4.720;2023-08-24T00:11:48;3.30;;;2.27;;
18435;SDS011;9346;52.006;4.720;2023-08-24T00:14:17;2.93;;;2.50;;
18435;SDS011;9346;52.006;4.720;2023-08-24T00:16:44;3.10;;;2.70;;
18435;SDS011;9346;52.006;4.720;2023-08-24T00:19:11;2.40;;;2.20;;
18435;SDS011;9346;52.006;4.720;2023-08-24T00:21:38;4.17;;;3.00;;
18435;SDS011;9346;52.006;4.720;2023-08-24T00:24:04;4.53;;;2.87;;
18435;SDS011;9346;52.006;4.720;2023-08-24T00:26:31;4.10;;;3.40;;
18435;SDS011;9346;52.006;4.720;2023-08-24T00:28:58;5.20;;;2.70;;
18435;SDS011;9346;52.006;4.720;2023-08-24T00:31:27;4.50;;;2.63;;
18435;SDS011;9346;52.006;4.720;2023-08-24T00:33:54;4.10;;;3.23;;
18435;SDS011;9346;52.006;4.720;2023-08-24T00:36:21;6.17;;;3.17;;
18435;SDS011;9346;52.006;4.720;2023-08-24T00:38:48;7.07;;;3.57;;
18435;SDS011;9346;52.006;4.720;2023-08-24T00:41:16;3.97;;;2.43;;
18435;SDS011;9346;52.006;4.720;2023-08-24T00:43:44;2.83;;;2.37;;
18435;SDS011;9346;52.006;4.720;2023-08-24T00:46:14;4.97;;;3.33;;
18435;SDS011;9346;52.006;4.720;2023-08-24T00:48:43;2.90;;;2.60;;
18435;SDS011;9346;52.006;4.720;2023-08-24T00:51:10;4.27;;;3.07;;
18435;SDS011;9346;52.006;4.720;2023-08-24T00:53:36;2.80;;;2.50;;
18435;SDS011;9346;52.006;4.720;2023-08-24T00:56:04;5.10;;;3.30;;
18435;SDS011;9346;52.006;4.720;2023-08-24T00:58:31;4.23;;;2.93;;
18435;SDS011;9346;52.006;4.720;2023-08-24T01:00:59;2.97;;;2.60;;
18435;SDS011;9346;52.006;4.720;2023-08-24T01:03:26;4.33;;;3.07;;
18435;SDS011;9346;52.006;4.720;2023-08-24T01:05:54;3.23;;;2.87;;
18435;SDS011;9346;52.006;4.720;2023-08-24T01:08:21;3.13;;;2.80;;
18435;SDS011;9346;52.006;4.720;2023-08-24T01:10:51;2.90;;;2.50;;
18435;SDS011;9346;52.006;4.720;2023-08-24T01:13:26;3.73;;;2.83;;
18435;SDS011;9346;52.006;4.720;2023-08-24T01:15:58;4.87;;;3.03;;
18435;SDS011;9346;52.006;4.720;2023-08-24T01:18:30;3.30;;;2.60;;
18435;SDS011;9346;52.006;4.720;2023-08-24T01:21:02;5.00;;;3.07;;
18435;SDS011;9346;52.006;4.720;2023-08-24T01:23:34;6.60;;;3.20;;
18435;SDS011;9346;52.006;4.720;2023-08-24T01:26:10;4.20;;;2.80;;
18435;SDS011;9346;52.006;4.720;2023-08-24T01:28:39;5.43;;;3.20;;
18435;SDS011;9346;52.006;4.720;2023-08-24T01:31:07;6.43;;;3.13;;
18435;SDS011;9346;52.006;4.720;2023-08-24T01:33:34;5.33;;;3.43;;
18435;SDS011;9346;52.006;4.720;2023-08-24T01:36:01;4.50;;;3.07;;
18435;SDS011;9346;52.006;4.720;2023-08-24T01:38:28;5.40;;;2.97;;
18435;SDS011;9346;52.006;4.720;2023-08-24T01:40:59;3.77;;;3.10;;
18435;SDS011;9346;52.006;4.720;2023-08-24T01:43:31;3.43;;;2.67;;
18435;SDS011;9346;52.006;4.720;2023-08-24T01:46:01;3.43;;;3.13;;
18435;SDS011;9346;52.006;4.720;2023-08-24T01:48:30;7.53;;;3.73;;
18435;SDS011;9346;52.006;4.720;2023-08-24T01:50:58;5.23;;;3.80;;
18435;SDS011;9346;52.006;4.720;2023-08-24T01:53:27;7.77;;;4.07;;
18435;SDS011;9346;52.006;4.720;2023-08-24T01:55:55;4.73;;;4.23;;
18435;SDS011;9346;52.006;4.720;2023-08-24T01:58:21;4.77;;;3.63;;
18435;SDS011;9346;52.006;4.720;2023-08-24T02:00:50;5.23;;;3.87;;
18435;SDS011;9346;52.006;4.720;2023-08-24T02:03:17;3.90;;;3.33;;
18435;SDS011;9346;52.006;4.720;2023-08-24T02:05:44;5.53;;;3.80;;
18435;SDS011;9346;52.006;4.720;2023-08-24T02:08:11;5.17;;;3.77;;
18435;SDS011;9346;52.006;4.720;2023-08-24T02:10:37;5.83;;;4.13;;
18435;SDS011;9346;52.006;4.720;2023-08-24T02:13:04;5.53;;;3.97;;
18435;SDS011;9346;52.006;4.720;2023-08-24T02:15:31;5.87;;;3.93;;
18435;SDS011;9346;52.006;4.720;2023-08-24T02:18:00;5.23;;;3.77;;
18435;SDS011;9346;52.006;4.720;2023-08-24T02:20:27;5.80;;;3.93;;
18435;SDS011;9346;52.006;4.720;2023-08-24T02:22:54;7.73;;;4.20;;
18435;SDS011;9346;52.006;4.720;2023-08-24T02:25:20;6.83;;;4.17;;
18435;SDS011;9346;52.006;4.720;2023-08-24T02:27:47;5.53;;;3.63;;
18435;SDS011;9346;52.006;4.720;2023-08-24T02:30:14;5.00;;;4.17;;
18435;SDS011;9346;52.006;4.720;2023-08-24T02:32:41;6.93;;;4.67;;
18435;SDS011;9346;52.006;4.720;2023-08-24T02:35:10;5.60;;;4.23;;
18435;SDS011;9346;52.006;4.720;2023-08-24T02:37:37;7.53;;;4.57;;
18435;SDS011;9346;52.006;4.720;2023-08-24T02:40:04;5.30;;;4.27;;
18435;SDS011;9346;52.006;4.720;2023-08-24T02:42:33;5.37;;;4.50;;
18435;SDS011;9346;52.006;4.720;2023-08-24T02:45:00;7.87;;;4.50;;
18435;SDS011;9346;52.006;4.720;2023-08-24T02:47:27;7.10;;;4.73;;
18435;SDS011;9346;52.006;4.720;2023-08-24T02:49:54;6.33;;;4.30;;
18435;SDS011;9346;52.006;4.720;2023-08-24T02:52:23;5.27;;;4.20;;
18435;SDS011;9346;52.006;4.720;2023-08-24T02:54:50;5.97;;;4.43;;
18435;SDS011;9346;52.006;4.720;2023-08-24T02:57:17;5.43;;;4.20;;
18435;SDS011;9346;52.006;4.720;2023-08-24T02:59:43;6.57;;;4.60;;
18435;SDS011;9346;52.006;4.720;2023-08-24T03:02:10;5.95;;;4.60;;
18435;SDS011;9346;52.006;4.720;2023-08-24T03:04:38;6.63;;;4.53;;
18435;SDS011;9346;52.006;4.720;2023-08-24T03:07:05;7.10;;;4.70;;
18435;SDS011;9346;52.006;4.720;2023-08-24T03:09:37;6.90;;;4.43;;
18435;SDS011;9346;52.006;4.720;2023-08-24T03:12:04;5.27;;;4.00;;
18435;SDS011;9346;52.006;4.720;2023-08-24T03:14:31;7.93;;;4.53;;
18435;SDS011;9346;52.006;4.720;2023-08-24T03:16:58;6.20;;;4.70;;
18435;SDS011;9346;52.006;4.720;2023-08-24T03:19:25;6.70;;;4.60;;
18435;SDS011;9346;52.006;4.720;2023-08-24T03:21:52;6.37;;;4.33;;
18435;SDS011;9346;52.006;4.720;2023-08-24T03:24:19;5.40;;;4.80;;
18435;SDS011;9346;52.006;4.720;2023-08-24T03:26:47;8.23;;;4.67;;
18435;SDS011;9346;52.006;4.720;2023-08-24T03:29:14;6.77;;;4.37;;
18435;SDS011;9346;52.006;4.720;2023-08-24T03:31:40;5.40;;;4.23;;
18435;SDS011;9346;52.006;4.720;2023-08-24T03:34:07;5.20;;;3.77;;
18435;SDS011;9346;52.006;4.720;2023-08-24T03:36:34;6.10;;;4.40;;
18435;SDS011;9346;52.006;4.720;2023-08-24T03:39:03;5.50;;;4.57;;
18435;SDS011;9346;52.006;4.720;2023-08-24T03:41:30;6.47;;;4.03;;
18435;SDS011;9346;52.006;4.720;2023-08-24T03:43:58;5.80;;;4.23;;
18435;SDS011;9346;52.006;4.720;2023-08-24T03:46:25;6.43;;;4.53;;
18435;SDS011;9346;52.006;4.720;2023-08-24T03:48:52;4.30;;;3.90;;
18435;SDS011;9346;52.006;4.720;2023-08-24T03:51:18;6.90;;;4.50;;
18435;SDS011;9346;52.006;4.720;2023-08-24T03:53:45;6.83;;;5.30;;
18435;SDS011;9346;52.006;4.720;2023-08-24T03:56:12;6.67;;;4.53;;
18435;SDS011;9346;52.006;4.720;2023-08-24T03:58:39;6.67;;;4.97;;
18435;SDS011;9346;52.006;4.720;2023-08-24T04:01:11;8.20;;;4.73;;
18435;SDS011;9346;52.006;4.720;2023-08-24T04:03:38;8.87;;;5.00;;
18435;SDS011;9346;52.006;4.720;2023-08-24T04:06:05;8.67;;;5.33;;
18435;SDS011;9346;52.006;4.720;2023-08-24T04:08:32;7.40;;;4.33;;
18435;SDS011;9346;52.006;4.720;2023-08-24T04:10:59;5.90;;;4.97;;
18435;SDS011;9346;52.006;4.720;2023-08-24T04:13:26;7.97;;;5.23;;
18435;SDS011;9346;52.006;4.720;2023-08-24T04:15:53;13.10;;;4.83;;
18435;SDS011;9346;52.006;4.720;2023-08-24T04:18:21;5.90;;;4.90;;
18435;SDS011;9346;52.006;4.720;2023-08-24T04:20:51;6.53;;;4.60;;
18435;SDS011;9346;52.006;4.720;2023-08-24T04:23:23;6.43;;;4.73;;
18435;SDS011;9346;52.006;4.720;2023-08-24T04:25:50;6.57;;;4.70;;
18435;SDS011;9346;52.006;4.720;2023-08-24T04:28:17;6.80;;;4.93;;
18435;SDS011;9346;52.006;4.720;2023-08-24T04:30:48;6.90;;;4.73;;
18435;SDS011;9346;52.006;4.720;2023-08-24T04:33:16;7.10;;;4.63;;
18435;SDS011;9346;52.006;4.720;2023-08-24T04:35:46;6.77;;;4.57;;
18435;SDS011;9346;52.006;4.720;2023-08-24T04:38:14;6.77;;;4.50;;
18435;SDS011;9346;52.006;4.720;2023-08-24T04:40:45;6.43;;;5.00;;
18435;SDS011;9346;52.006;4.720;2023-08-24T04:43:13;8.67;;;5.90;;
18435;SDS011;9346;52.006;4.720;2023-08-24T04:45:39;9.27;;;5.07;;
18435;SDS011;9346;52.006;4.720;2023-08-24T04:48:06;9.13;;;5.20;;
18435;SDS011;9346;52.006;4.720;2023-08-24T04:50:33;8.47;;;5.20;;
18435;SDS011;9346;52.006;4.720;2023-08-24T04:53:02;8.57;;;5.63;;
18435;SDS011;9346;52.006;4.720;2023-08-24T04:55:29;6.63;;;4.87;;
18435;SDS011;9346;52.006;4.720;2023-08-24T04:57:56;8.70;;;5.07;;
18435;SDS011;9346;52.006;4.720;2023-08-24T05:00:23;5.93;;;5.00;;
18435;SDS011;9346;52.006;4.720;2023-08-24T05:02:50;10.23;;;5.43;;
18435;SDS011;9346;52.006;4.720;2023-08-24T05:05:17;9.47;;;5.37;;
18435;SDS011;9346;52.006;4.720;2023-08-24T05:07:45;6.63;;;4.90;;
18435;SDS011;9346;52.006;4.720;2023-08-24T05:10:13;8.80;;;4.83;;
18435;SDS011;9346;52.006;4.720;2023-08-24T05:12:40;8.07;;;5.27;;
18435;SDS011;9346;52.006;4.720;2023-08-24T05:15:08;9.77;;;5.90;;
18435;SDS011;9346;52.006;4.720;2023-08-24T05:17:35;8.23;;;6.10;;
18435;SDS011;9346;52.006;4.720;2023-08-24T05:20:02;8.37;;;5.60;;
18435;SDS011;9346;52.006;4.720;2023-08-24T05:22:29;9.47;;;6.37;;
18435;SDS011;9346;52.006;4.720;2023-08-24T05:24:56;8.73;;;6.27;;
18435;SDS011;9346;52.006;4.720;2023-08-24T05:27:25;7.70;;;5.83;;
18435;SDS011;9346;52.006;4.720;2023-08-24T05:29:52;10.83;;;6.63;;
18435;SDS011;9346;52.006;4.720;2023-08-24T05:32:19;8.33;;;5.17;;
18435;SDS011;9346;52.006;4.720;2023-08-24T05:34:46;9.80;;;6.13;;
18435;SDS011;9346;52.006;4.720;2023-08-24T05:37:13;7.73;;;5.67;;
18435;SDS011;9346;52.006;4.720;2023-08-24T05:39:40;9.73;;;7.07;;
18435;SDS011;9346;52.006;4.720;2023-08-24T05:42:07;7.00;;;5.60;;
18435;SDS011;9346;52.006;4.720;2023-08-24T05:44:37;8.43;;;6.13;;
18435;SDS011;9346;52.006;4.720;2023-08-24T05:47:04;8.60;;;6.70;;
18435;SDS011;9346;52.006;4.720;2023-08-24T05:49:32;12.27;;;7.30;;
18435;SDS011;9346;52.006;4.720;2023-08-24T05:51:59;10.13;;;6.83;;
18435;SDS011;9346;52.006;4.720;2023-08-24T05:54:25;12.90;;;7.20;;
18435;SDS011;9346;52.006;4.720;2023-08-24T05:56:52;12.83;;;7.43;;
18435;SDS011;9346;52.006;4.720;2023-08-24T05:59:19;10.27;;;6.33;;
18435;SDS011;9346;52.006;4.720;2023-08-24T06:01:48;8.57;;;6.20;;
18435;SDS011;9346;52.006;4.720;2023-08-24T06:04:15;8.37;;;6.60;;
18435;SDS011;9346;52.006;4.720;2023-08-24T06:06:43;11.70;;;7.57;;
18435;SDS011;9346;52.006;4.720;2023-08-24T06:09:09;12.13;;;7.77;;
18435;SDS011;9346;52.006;4.720;2023-08-24T06:11:36;12.20;;;7.13;;
18435;SDS011;9346;52.006;4.720;2023-08-24T06:14:03;9.53;;;7.20;;
18435;SDS011;9346;52.006;4.720;2023-08-24T06:16:30;9.70;;;7.33;;
18435;SDS011;9346;52.006;4.720;2023-08-24T06:18:58;13.77;;;7.93;;
18435;SDS011;9346;52.006;4.720;2023-08-24T06:21:25;12.73;;;8.00;;
18435;SDS011;9346;52.006;4.720;2023-08-24T06:23:52;10.33;;;7.70;;
18435;SDS011;9346;52.006;4.720;2023-08-24T06:26:18;15.93;;;8.33;;
18435;SDS011;9346;52.006;4.720;2023-08-24T06:28:45;12.50;;;7.57;;
18435;SDS011;9346;52.006;4.720;2023-08-24T06:31:12;11.97;;;8.93;;
18435;SDS011;9346;52.006;4.720;2023-08-24T06:33:39;9.17;;;7.03;;
18435;SDS011;9346;52.006;4.720;2023-08-24T06:36:08;13.40;;;8.30;;
18435;SDS011;9346;52.006;4.720;2023-08-24T06:38:37;15.97;;;8.73;;
18435;SDS011;9346;52.006;4.720;2023-08-24T06:41:03;14.17;;;8.90;;
18435;SDS011;9346;52.006;4.720;2023-08-24T06:43:30;12.67;;;8.83;;
18435;SDS011;9346;52.006;4.720;2023-08-24T06:45:57;16.63;;;9.07;;
18435;SDS011;9346;52.006;4.720;2023-08-24T06:48:24;15.50;;;9.77;;
18435;SDS011;9346;52.006;4.720;2023-08-24T06:50:51;13.13;;;9.33;;
18435;SDS011;9346;52.006;4.720;2023-08-24T06:53:19;11.40;;;8.40;;
18435;SDS011;9346;52.006;4.720;2023-08-24T06:55:53;14.07;;;9.43;;
18435;SDS011;9346;52.006;4.720;2023-08-24T06:58:20;12.70;;;9.53;;
18435;SDS011;9346;52.006;4.720;2023-08-24T07:00:47;16.07;;;9.70;;
18435;SDS011;9346;52.006;4.720;2023-08-24T07:03:15;13.90;;;9.73;;
18435;SDS011;9346;52.006;4.720;2023-08-24T07:05:42;15.53;;;9.90;;
18435;SDS011;9346;52.006;4.720;2023-08-24T07:08:10;15.47;;;9.60;;
18435;SDS011;9346;52.006;4.720;2023-08-24T07:10:39;15.80;;;10.60;;
18435;SDS011;9346;52.006;4.720;2023-08-24T07:13:06;14.50;;;9.93;;
18435;SDS011;9346;52.006;4.720;2023-08-24T07:15:34;12.77;;;9.53;;
18435;SDS011;9346;52.006;4.720;2023-08-24T07:18:01;15.87;;;10.10;;
18435;SDS011;9346;52.006;4.720;2023-08-24T07:20:31;14.23;;;10.33;;
18435;SDS011;9346;52.006;4.720;2023-08-24T07:22:59;15.33;;;9.47;;
18435;SDS011;9346;52.006;4.720;2023-08-24T07:25:26;14.13;;;10.03;;
18435;SDS011;9346;52.006;4.720;2023-08-24T07:27:56;14.03;;;9.60;;
18435;SDS011;9346;52.006;4.720;2023-08-24T07:30:24;14.43;;;9.30;;
18435;SDS011;9346;52.006;4.720;2023-08-24T07:32:52;12.80;;;9.33;;
18435;SDS011;9346;52.006;4.720;2023-08-24T07:35:19;12.83;;;9.60;;
18435;SDS011;9346;52.006;4.720;2023-08-24T07:37:49;12.33;;;8.60;;
18435;SDS011;9346;52.006;4.720;2023-08-24T07:40:17;11.33;;;8.83;;
18435;SDS011;9346;52.006;4.720;2023-08-24T07:42:44;13.73;;;8.60;;
18435;SDS011;9346;52.006;4.720;2023-08-24T07:45:13;11.90;;;9.23;;
18435;SDS011;9346;52.006;4.720;2023-08-24T07:47:40;13.17;;;9.37;;
18435;SDS011;9346;52.006;4.720;2023-08-24T07:50:07;16.23;;;9.33;;
18435;SDS011;9346;52.006;4.720;2023-08-24T07:52:36;12.17;;;8.80;;
18435;SDS011;9346;52.006;4.720;2023-08-24T07:55:03;11.87;;;9.13;;
18435;SDS011;9346;52.006;4.720;2023-08-24T07:57:32;12.17;;;8.33;;
18435;SDS011;9346;52.006;4.720;2023-08-24T07:59:59;11.73;;;8.30;;
18435;SDS011;9346;52.006;4.720;2023-08-24T08:02:28;11.43;;;8.67;;
18435;SDS011;9346;52.006;4.720;2023-08-24T08:04:57;13.30;;;8.93;;
18435;SDS011;9346;52.006;4.720;2023-08-24T08:07:24;13.83;;;9.80;;
18435;SDS011;9346;52.006;4.720;2023-08-24T08:09:52;14.13;;;9.40;;
18435;SDS011;9346;52.006;4.720;2023-08-24T08:12:19;13.87;;;9.37;;
18435;SDS011;9346;52.006;4.720;2023-08-24T08:14:45;13.50;;;9.27;;
18435;SDS011;9346;52.006;4.720;2023-08-24T08:17:12;11.50;;;8.77;;
18435;SDS011;9346;52.006;4.720;2023-08-24T08:19:41;11.83;;;9.20;;
18435;SDS011;9346;52.006;4.720;2023-08-24T08:22:08;13.30;;;9.13;;
18435;SDS011;9346;52.006;4.720;2023-08-24T08:24:35;10.10;;;8.57;;
18435;SDS011;9346;52.006;4.720;2023-08-24T08:27:02;12.87;;;9.17;;
18435;SDS011;9346;52.006;4.720;2023-08-24T08:29:29;12.10;;;9.30;;
18435;SDS011;9346;52.006;4.720;2023-08-24T08:31:56;10.90;;;8.27;;
18435;SDS011;9346;52.006;4.720;2023-08-24T08:34:22;11.87;;;8.33;;
18435;SDS011;9346;52.006;4.720;2023-08-24T08:36:51;13.33;;;9.23;;
18435;SDS011;9346;52.006;4.720;2023-08-24T08:39:18;13.57;;;9.40;;
18435;SDS011;9346;52.006;4.720;2023-08-24T08:41:45;12.67;;;9.23;;
18435;SDS011;9346;52.006;4.720;2023-08-24T08:44:12;13.97;;;9.00;;
18435;SDS011;9346;52.006;4.720;2023-08-24T08:46:40;12.77;;;9.57;;
18435;SDS011;9346;52.006;4.720;2023-08-24T08:49:09;11.87;;;8.70;;
18435;SDS011;9346;52.006;4.720;2023-08-24T08:51:40;12.70;;;8.87;;
18435;SDS011;9346;52.006;4.720;2023-08-24T08:54:09;14.77;;;9.40;;
18435;SDS011;9346;52.006;4.720;2023-08-24T08:56:37;11.47;;;8.77;;
18435;SDS011;9346;52.006;4.720;2023-08-24T08:59:05;14.57;;;10.30;;
18435;SDS011;9346;52.006;4.720;2023-08-24T09:01:36;11.43;;;9.50;;
18435;SDS011;9346;52.006;4.720;2023-08-24T09:04:03;12.23;;;9.50;;
18435;SDS011;9346;52.006;4.720;2023-08-24T09:06:32;11.27;;;8.70;;
18435;SDS011;9346;52.006;4.720;2023-08-24T09:09:00;13.63;;;9.93;;
18435;SDS011;9346;52.006;4.720;2023-08-24T09:11:29;14.40;;;9.70;;
18435;SDS011;9346;52.006;4.720;2023-08-24T09:13:56;14.60;;;10.10;;
18435;SDS011;9346;52.006;4.720;2023-08-24T09:16:22;15.20;;;10.90;;
18435;SDS011;9346;52.006;4.720;2023-08-24T09:18:49;18.00;;;10.27;;
18435;SDS011;9346;52.006;4.720;2023-08-24T09:21:16;11.20;;;9.90;;
18435;SDS011;9346;52.006;4.720;2023-08-24T09:23:43;12.77;;;10.47;;
18435;SDS011;9346;52.006;4.720;2023-08-24T09:26:11;14.60;;;10.13;;
18435;SDS011;9346;52.006;4.720;2023-08-24T09:28:42;14.60;;;10.20;;
18435;SDS011;9346;52.006;4.720;2023-08-24T09:31:11;13.67;;;10.17;;
18435;SDS011;9346;52.006;4.720;2023-08-24T09:33:40;16.17;;;9.40;;
18435;SDS011;9346;52.006;4.720;2023-08-24T09:36:10;16.07;;;10.37;;
18435;SDS011;9346;52.006;4.720;2023-08-24T09:38:45;12.70;;;10.30;;
18435;SDS011;9346;52.006;4.720;2023-08-24T09:41:13;11.97;;;9.53;;
18435;SDS011;9346;52.006;4.720;2023-08-24T09:43:42;15.13;;;9.73;;
18435;SDS011;9346;52.006;4.720;2023-08-24T09:46:09;13.53;;;8.80;;
18435;SDS011;9346;52.006;4.720;2023-08-24T09:48:36;13.23;;;9.03;;
18435;SDS011;9346;52.006;4.720;2023-08-24T09:51:03;14.23;;;9.93;;
18435;SDS011;9346;52.006;4.720;2023-08-24T09:53:32;12.90;;;8.90;;
18435;SDS011;9346;52.006;4.720;2023-08-24T09:56:00;10.37;;;8.47;;
18435;SDS011;9346;52.006;4.720;2023-08-24T09:58:28;14.57;;;10.03;;
18435;SDS011;9346;52.006;4.720;2023-08-24T10:00:58;15.57;;;9.67;;
18435;SDS011;9346;52.006;4.720;2023-08-24T10:03:26;13.67;;;9.50;;
18435;SDS011;9346;52.006;4.720;2023-08-24T10:05:54;14.07;;;10.53;;
18435;SDS011;9346;52.006;4.720;2023-08-24T10:08:24;13.20;;;9.43;;
18435;SDS011;9346;52.006;4.720;2023-08-24T10:10:53;12.43;;;9.73;;
18435;SDS011;9346;52.006;4.720;2023-08-24T10:13:25;16.40;;;11.57;;
18435;SDS011;9346;52.006;4.720;2023-08-24T10:16:00;15.33;;;10.20;;
18435;SDS011;9346;52.006;4.720;2023-08-24T10:18:29;14.03;;;10.67;;
18435;SDS011;9346;52.006;4.720;2023-08-24T10:20:56;13.80;;;11.07;;
18435;SDS011;9346;52.006;4.720;2023-08-24T10:23:24;14.47;;;10.00;;
18435;SDS011;9346;52.006;4.720;2023-08-24T10:25:53;14.93;;;11.00;;
18435;SDS011;9346;52.006;4.720;2023-08-24T10:28:23;14.27;;;10.97;;
18435;SDS011;9346;52.006;4.720;2023-08-24T10:30:50;18.23;;;11.33;;
18435;SDS011;9346;52.006;4.720;2023-08-24T10:33:21;15.77;;;10.70;;
18435;SDS011;9346;52.006;4.720;2023-08-24T10:35:50;18.07;;;12.87;;
18435;SDS011;9346;52.006;4.720;2023-08-24T10:38:24;17.20;;;12.30;;
18435;SDS011;9346;52.006;4.720;2023-08-24T10:40:52;15.90;;;12.50;;
18435;SDS011;9346;52.006;4.720;2023-08-24T10:43:19;16.17;;;12.30;;
18435;SDS011;9346;52.006;4.720;2023-08-24T10:45:55;16.77;;;12.97;;
18435;SDS011;9346;52.006;4.720;2023-08-24T10:48:25;15.37;;;12.03;;
18435;SDS011;9346;52.006;4.720;2023-08-24T10:53:47;14.80;;;12.03;;
18435;SDS011;9346;52.006;4.720;2023-08-24T10:56:17;15.07;;;12.37;;
18435;SDS011;9346;52.006;4.720;2023-08-24T10:58:44;17.03;;;12.63;;
18435;SDS011;9346;52.006;4.720;2023-08-24T11:01:15;17.57;;;11.93;;
18435;SDS011;9346;52.006;4.720;2023-08-24T11:03:51;16.53;;;12.73;;
18435;SDS011;9346;52.006;4.720;2023-08-24T11:06:21;14.37;;;11.00;;
18435;SDS011;9346;52.006;4.720;2023-08-24T11:08:57;15.40;;;11.87;;
18435;SDS011;9346;52.006;4.720;2023-08-24T11:11:38;16.47;;;13.03;;
18435;SDS011;9346;52.006;4.720;2023-08-24T11:14:14;16.50;;;12.47;;
18435;SDS011;9346;52.006;4.720;2023-08-24T11:16:45;16.43;;;11.73;;
18435;SDS011;9346;52.006;4.720;2023-08-24T11:19:14;17.37;;;12.77;;
18435;SDS011;9346;52.006;4.720;2023-08-24T11:21:43;16.80;;;11.03;;
18435;SDS011;9346;52.006;4.720;2023-08-24T11:24:13;18.23;;;12.97;;
18435;SDS011;9346;52.006;4.720;2023-08-24T11:26:41;16.53;;;12.40;;
18435;SDS011;9346;52.006;4.720;2023-08-24T11:29:08;14.30;;;10.83;;
18435;SDS011;9346;52.006;4.720;2023-08-24T11:31:36;15.73;;;11.80;;
18435;SDS011;9346;52.006;4.720;2023-08-24T11:34:03;13.27;;;11.23;;
18435;SDS011;9346;52.006;4.720;2023-08-24T11:36:32;18.60;;;11.57;;
18435;SDS011;9346;52.006;4.720;2023-08-24T11:39:13;15.37;;;11.33;;
18435;SDS011;9346;52.006;4.720;2023-08-24T11:41:41;15.27;;;10.87;;
18435;SDS011;9346;52.006;4.720;2023-08-24T11:44:09;17.53;;;11.83;;
18435;SDS011;9346;52.006;4.720;2023-08-24T11:46:37;14.87;;;10.57;;
18435;SDS011;9346;52.006;4.720;2023-08-24T11:49:04;14.90;;;11.30;;
18435;SDS011;9346;52.006;4.720;2023-08-24T11:51:33;13.40;;;11.17;;
18435;SDS011;9346;52.006;4.720;2023-08-24T11:54:00;15.90;;;12.30;;
18435;SDS011;9346;52.006;4.720;2023-08-24T11:56:27;14.77;;;11.63;;
18435;SDS011;9346;52.006;4.720;2023-08-24T11:58:54;16.43;;;11.47;;
18435;SDS011;9346;52.006;4.720;2023-08-24T12:01:21;16.47;;;12.43;;
18435;SDS011;9346;52.006;4.720;2023-08-24T12:03:49;17.02;;;12.35;;
18435;SDS011;9346;52.006;4.720;2023-08-24T12:06:16;14.80;;;11.70;;
18435;SDS011;9346;52.006;4.720;2023-08-24T12:08:46;13.13;;;11.40;;
18435;SDS011;9346;52.006;4.720;2023-08-24T12:11:14;14.43;;;12.03;;
18435;SDS011;9346;52.006;4.720;2023-08-24T12:13:42;14.93;;;12.15;;
18435;SDS011;9346;52.006;4.720;2023-08-24T12:16:10;17.63;;;11.80;;
18435;SDS011;9346;52.006;4.720;2023-08-24T12:18:49;13.63;;;11.10;;
18435;SDS011;9346;52.006;4.720;2023-08-24T12:21:19;18.10;;;12.27;;
18435;SDS011;9346;52.006;4.720;2023-08-24T12:23:56;18.07;;;12.27;;
18435;SDS011;9346;52.006;4.720;2023-08-24T12:26:29;16.67;;;11.97;;
18435;SDS011;9346;52.006;4.720;2023-08-24T12:28:59;14.67;;;12.17;;
18435;SDS011;9346;52.006;4.720;2023-08-24T12:31:28;16.53;;;10.60;;
18435;SDS011;9346;52.006;4.720;2023-08-24T12:33:59;14.97;;;11.43;;
18435;SDS011;9346;52.006;4.720;2023-08-24T12:36:28;13.75;;;11.10;;
18435;SDS011;9346;52.006;4.720;2023-08-24T12:38:57;17.92;;;11.32;;
18435;SDS011;9346;52.006;4.720;2023-08-24T12:41:24;16.45;;;10.98;;
18435;SDS011;9346;52.006;4.720;2023-08-24T12:43:51;12.48;;;10.32;;
18435;SDS011;9346;52.006;4.720;2023-08-24T12:46:18;11.63;;;10.32;;
18435;SDS011;9346;52.006;4.720;2023-08-24T12:48:45;13.00;;;10.80;;
18435;SDS011;9346;52.006;4.720;2023-08-24T12:51:12;13.07;;;10.63;;
18435;SDS011;9346;52.006;4.720;2023-08-24T12:53:39;13.65;;;10.35;;
18435;SDS011;9346;52.006;4.720;2023-08-24T12:56:08;13.00;;;10.03;;
18435;SDS011;9346;52.006;4.720;2023-08-24T12:58:35;12.00;;;10.15;;
18435;SDS011;9346;52.006;4.720;2023-08-24T13:01:01;13.35;;;10.38;;
18435;SDS011;9346;52.006;4.720;2023-08-24T13:03:28;14.52;;;9.82;;
18435;SDS011;9346;52.006;4.720;2023-08-24T13:05:55;15.32;;;10.73;;
18435;SDS011;9346;52.006;4.720;2023-08-24T13:08:22;12.90;;;9.77;;
18435;SDS011;9346;52.006;4.720;2023-08-24T13:10:50;12.95;;;10.27;;
18435;SDS011;9346;52.006;4.720;2023-08-24T13:13:20;12.25;;;10.48;;
18435;SDS011;9346;52.006;4.720;2023-08-24T13:15:48;13.45;;;10.82;;
18435;SDS011;9346;52.006;4.720;2023-08-24T13:18:16;12.65;;;10.18;;
18435;SDS011;9346;52.006;4.720;2023-08-24T13:20:43;13.00;;;10.57;;
18435;SDS011;9346;52.006;4.720;2023-08-24T13:23:11;12.73;;;10.93;;
18435;SDS011;9346;52.006;4.720;2023-08-24T13:25:38;16.02;;;13.27;;
18435;SDS011;9346;52.006;4.720;2023-08-24T13:28:05;15.13;;;13.07;;
18435;SDS011;9346;52.006;4.720;2023-08-24T13:30:34;16.35;;;12.88;;
18435;SDS011;9346;52.006;4.720;2023-08-24T13:33:01;16.05;;;11.95;;
18435;SDS011;9346;52.006;4.720;2023-08-24T13:35:27;15.85;;;10.60;;
18435;SDS011;9346;52.006;4.720;2023-08-24T13:37:53;15.25;;;10.50;;
18435;SDS011;9346;52.006;4.720;2023-08-24T13:40:20;13.00;;;10.95;;
18435;SDS011;9346;52.006;4.720;2023-08-24T13:42:47;14.40;;;10.95;;
18435;SDS011;9346;52.006;4.720;2023-08-24T13:45:14;14.75;;;11.88;;
18435;SDS011;9346;52.006;4.720;2023-08-24T13:47:43;17.50;;;11.80;;
18435;SDS011;9346;52.006;4.720;2023-08-24T13:50:10;15.57;;;11.93;;
18435;SDS011;9346;52.006;4.720;2023-08-24T13:52:37;14.10;;;11.70;;
18435;SDS011;9346;52.006;4.720;2023-08-24T13:55:05;13.48;;;11.68;;
18435;SDS011;9346;52.006;4.720;2023-08-24T13:57:32;15.13;;;11.63;;
18435;SDS011;9346;52.006;4.720;2023-08-24T13:59:59;16.20;;;11.32;;
18435;SDS011;9346;52.006;4.720;2023-08-24T14:02:28;13.55;;;11.10;;
18435;SDS011;9346;52.006;4.720;2023-08-24T14:04:57;17.25;;;11.63;;
18435;SDS011;9346;52.006;4.720;2023-08-24T14:07:24;15.07;;;11.57;;
18435;SDS011;9346;52.006;4.720;2023-08-24T14:09:51;14.68;;;11.05;;
18435;SDS011;9346;52.006;4.720;2023-08-24T14:12:18;13.80;;;11.35;;
18435;SDS011;9346;52.006;4.720;2023-08-24T14:14:45;14.90;;;12.15;;
18435;SDS011;9346;52.006;4.720;2023-08-24T14:17:12;15.60;;;11.93;;
18435;SDS011;9346;52.006;4.720;2023-08-24T14:19:38;16.05;;;12.82;;
18435;SDS011;9346;52.006;4.720;2023-08-24T14:22:07;15.25;;;11.90;;
18435;SDS011;9346;52.006;4.720;2023-08-24T14:24:34;12.98;;;9.98;;
18435;SDS011;9346;52.006;4.720;2023-08-24T14:27:01;17.40;;;11.23;;
18435;SDS011;9346;52.006;4.720;2023-08-24T14:29:28;15.13;;;11.60;;
18435;SDS011;9346;52.006;4.720;2023-08-24T14:31:58;15.77;;;10.70;;
18435;SDS011;9346;52.006;4.720;2023-08-24T14:34:25;12.75;;;9.98;;
18435;SDS011;9346;52.006;4.720;2023-08-24T14:36:52;13.75;;;11.18;;
18435;SDS011;9346;52.006;4.720;2023-08-24T14:39:20;14.68;;;10.95;;
18435;SDS011;9346;52.006;4.720;2023-08-24T14:41:47;12.52;;;9.75;;
18435;SDS011;9346;52.006;4.720;2023-08-24T14:44:14;15.25;;;11.63;;
18435;SDS011;9346;52.006;4.720;2023-08-24T14:46:41;12.40;;;9.25;;
18435;SDS011;9346;52.006;4.720;2023-08-24T14:49:07;12.50;;;9.75;;
18435;SDS011;9346;52.006;4.720;2023-08-24T14:51:34;15.68;;;10.45;;
18435;SDS011;9346;52.006;4.720;2023-08-24T14:54:01;12.73;;;10.63;;
18435;SDS011;9346;52.006;4.720;2023-08-24T14:56:30;14.25;;;9.48;;